sensor_id;sensor_type;location;lat;lon;timestamp;P1;durP1;ratioP1;P2;durP2;ratioP2
29854;SDS011;16733;48.738;9.106;2024-01-10T00:00:06;14.85;;;4.47;;
29854;SDS011;16733;48.738;9.106;2024-01-10T00:02:33;12.38;;;4.20;;
29854;SDS011;16733;48.738;9.106;2024-01-10T00:04:59;4.53;;;3.00;;
29854;SDS011;16733;48.738;9.106;2024-01-10T00:07:25;7.80;;;3.42;;
29854;SDS011;16733;48.738;9.106;2024-01-10T00:09:51;6.82;;;3.30;;
29854;SDS011;16733;48.738;9.106;2024-01-10T00:12:17;9.43;;;3.42;;
29854;SDS011;16733;48.738;9.106;2024-01-10T00:14:43;7.80;;;3.42;;
29854;SDS011;16733;48.738;9.106;2024-01-10T00:17:09;7.18;;;3.67;;
29854;SDS011;16733;48.738;9.106;2024-01-10T00:19:35;11.10;;;3.35;;
29854;SDS011;16733;48.738;9.106;2024-01-10T00:22:01;6.07;;;3.83;;
29854;SDS011;16733;48.738;9.106;2024-01-10T00:24:27;9.48;;;3.97;;
29854;SDS011;16733;48.738;9.106;2024-01-10T00:26:53;13.02;;;4.75;;
29854;SDS011;16733;48.738;9.106;2024-01-10T00:29:20;7.90;;;3.58;;
29854;SDS011;16733;48.738;9.106;2024-01-10T00:31:46;5.00;;;2.60;;
29854;SDS011;16733;48.738;9.106;2024-01-10T00:34:12;5.38;;;3.33;;
29854;SDS011;16733;48.738;9.106;2024-01-10T00:36:38;5.97;;;3.70;;
29854;SDS011;16733;48.738;9.106;2024-01-10T00:39:04;7.07;;;3.75;;
29854;SDS011;16733;48.738;9.106;2024-01-10T00:41:31;10.18;;;3.38;;
29854;SDS011;16733;48.738;9.106;2024-01-10T00:43:57;7.88;;;3.90;;
29854;SDS011;16733;48.738;9.106;2024-01-10T00:46:23;33.45;;;4.60;;
29854;SDS011;16733;48.738;9.106;2024-01-10T00:48:49;11.05;;;3.72;;
29854;SDS011;16733;48.738;9.106;2024-01-10T00:51:15;9.02;;;4.50;;
29854;SDS011;16733;48.738;9.106;2024-01-10T00:53:41;5.30;;;3.10;;
29854;SDS011;16733;48.738;9.106;2024-01-10T00:56:07;10.98;;;4.53;;
29854;SDS011;16733;48.738;9.106;2024-01-10T00:58:33;9.98;;;4.38;;
29854;SDS011;16733;48.738;9.106;2024-01-10T01:00:59;11.00;;;3.40;;
29854;SDS011;16733;48.738;9.106;2024-01-10T01:03:25;8.13;;;3.70;;
29854;SDS011;16733;48.738;9.106;2024-01-10T01:05:51;6.85;;;3.30;;
29854;SDS011;16733;48.738;9.106;2024-01-10T01:08:18;9.40;;;3.35;;
29854;SDS011;16733;48.738;9.106;2024-01-10T01:10:44;5.63;;;3.33;;
29854;SDS011;16733;48.738;9.106;2024-01-10T01:13:10;5.93;;;3.42;;
29854;SDS011;16733;48.738;9.106;2024-01-10T01:15:36;11.80;;;4.70;;
29854;SDS011;16733;48.738;9.106;2024-01-10T01:18:02;8.65;;;4.00;;
29854;SDS011;16733;48.738;9.106;2024-01-10T01:20:28;14.50;;;4.13;;
29854;SDS011;16733;48.738;9.106;2024-01-10T01:22:54;7.07;;;3.60;;
29854;SDS011;16733;48.738;9.106;2024-01-10T01:25:20;15.98;;;3.90;;
29854;SDS011;16733;48.738;9.106;2024-01-10T01:27:46;12.40;;;4.80;;
29854;SDS011;16733;48.738;9.106;2024-01-10T01:30:12;9.48;;;3.67;;
29854;SDS011;16733;48.738;9.106;2024-01-10T01:32:38;8.00;;;3.25;;
29854;SDS011;16733;48.738;9.106;2024-01-10T01:35:04;9.02;;;3.67;;
29854;SDS011;16733;48.738;9.106;2024-01-10T01:37:30;10.55;;;4.30;;
29854;SDS011;16733;48.738;9.106;2024-01-10T01:39:56;7.97;;;3.75;;
29854;SDS011;16733;48.738;9.106;2024-01-10T01:42:22;9.63;;;4.15;;
29854;SDS011;16733;48.738;9.106;2024-01-10T01:44:48;6.03;;;3.35;;
29854;SDS011;16733;48.738;9.106;2024-01-10T01:47:14;7.78;;;3.83;;
29854;SDS011;16733;48.738;9.106;2024-01-10T01:49:41;14.93;;;2.85;;
29854;SDS011;16733;48.738;9.106;2024-01-10T01:52:08;10.07;;;3.38;;
29854;SDS011;16733;48.738;9.106;2024-01-10T01:54:34;17.48;;;4.50;;
29854;SDS011;16733;48.738;9.106;2024-01-10T01:57:00;10.25;;;4.18;;
29854;SDS011;16733;48.738;9.106;2024-01-10T01:59:26;11.90;;;4.43;;
29854;SDS011;16733;48.738;9.106;2024-01-10T02:01:52;11.90;;;3.80;;
29854;SDS011;16733;48.738;9.106;2024-01-10T02:04:21;9.25;;;4.97;;
29854;SDS011;16733;48.738;9.106;2024-01-10T02:06:47;9.32;;;3.10;;
29854;SDS011;16733;48.738;9.106;2024-01-10T02:09:13;11.20;;;4.53;;
29854;SDS011;16733;48.738;9.106;2024-01-10T02:11:40;11.27;;;4.32;;
29854;SDS011;16733;48.738;9.106;2024-01-10T02:14:06;13.20;;;4.15;;
29854;SDS011;16733;48.738;9.106;2024-01-10T02:16:32;11.18;;;5.55;;
29854;SDS011;16733;48.738;9.106;2024-01-10T02:18:58;7.10;;;3.40;;
29854;SDS011;16733;48.738;9.106;2024-01-10T02:21:25;13.07;;;4.03;;
29854;SDS011;16733;48.738;9.106;2024-01-10T02:23:51;11.57;;;4.95;;
29854;SDS011;16733;48.738;9.106;2024-01-10T02:26:17;7.88;;;4.53;;
29854;SDS011;16733;48.738;9.106;2024-01-10T02:28:43;7.03;;;3.60;;
29854;SDS011;16733;48.738;9.106;2024-01-10T02:31:09;6.60;;;4.07;;
29854;SDS011;16733;48.738;9.106;2024-01-10T02:33:36;12.50;;;4.22;;
29854;SDS011;16733;48.738;9.106;2024-01-10T02:36:02;8.00;;;4.20;;
29854;SDS011;16733;48.738;9.106;2024-01-10T02:38:28;6.45;;;3.75;;
29854;SDS011;16733;48.738;9.106;2024-01-10T02:40:54;5.47;;;3.08;;
29854;SDS011;16733;48.738;9.106;2024-01-10T02:43:21;13.23;;;3.72;;
29854;SDS011;16733;48.738;9.106;2024-01-10T02:45:47;9.82;;;3.80;;
29854;SDS011;16733;48.738;9.106;2024-01-10T02:48:13;10.38;;;4.35;;
29854;SDS011;16733;48.738;9.106;2024-01-10T02:50:39;7.35;;;4.65;;
29854;SDS011;16733;48.738;9.106;2024-01-10T02:53:05;10.25;;;4.95;;
29854;SDS011;16733;48.738;9.106;2024-01-10T02:55:31;9.35;;;4.50;;
29854;SDS011;16733;48.738;9.106;2024-01-10T02:57:57;4.97;;;3.42;;
29854;SDS011;16733;48.738;9.106;2024-01-10T03:00:23;9.23;;;4.28;;
29854;SDS011;16733;48.738;9.106;2024-01-10T03:02:49;9.52;;;3.58;;
29854;SDS011;16733;48.738;9.106;2024-01-10T03:05:15;10.93;;;6.03;;
29854;SDS011;16733;48.738;9.106;2024-01-10T03:07:41;7.45;;;3.47;;
29854;SDS011;16733;48.738;9.106;2024-01-10T03:10:07;9.98;;;4.38;;
29854;SDS011;16733;48.738;9.106;2024-01-10T03:12:33;19.63;;;3.95;;
29854;SDS011;16733;48.738;9.106;2024-01-10T03:15:01;7.90;;;4.18;;
29854;SDS011;16733;48.738;9.106;2024-01-10T03:17:27;11.02;;;4.10;;
29854;SDS011;16733;48.738;9.106;2024-01-10T03:19:53;10.07;;;3.35;;
29854;SDS011;16733;48.738;9.106;2024-01-10T03:22:19;5.75;;;3.33;;
29854;SDS011;16733;48.738;9.106;2024-01-10T03:24:45;10.75;;;5.65;;
29854;SDS011;16733;48.738;9.106;2024-01-10T03:27:11;9.75;;;3.85;;
29854;SDS011;16733;48.738;9.106;2024-01-10T03:29:37;12.45;;;3.83;;
29854;SDS011;16733;48.738;9.106;2024-01-10T03:32:03;11.82;;;5.18;;
29854;SDS011;16733;48.738;9.106;2024-01-10T03:34:29;5.55;;;3.40;;
29854;SDS011;16733;48.738;9.106;2024-01-10T03:36:55;10.20;;;3.17;;
29854;SDS011;16733;48.738;9.106;2024-01-10T03:39:21;7.70;;;4.40;;
29854;SDS011;16733;48.738;9.106;2024-01-10T03:41:47;4.65;;;3.55;;
29854;SDS011;16733;48.738;9.106;2024-01-10T03:44:13;10.10;;;3.97;;
29854;SDS011;16733;48.738;9.106;2024-01-10T03:46:39;5.22;;;3.33;;
29854;SDS011;16733;48.738;9.106;2024-01-10T03:49:05;4.60;;;2.75;;
29854;SDS011;16733;48.738;9.106;2024-01-10T03:51:31;8.27;;;4.28;;
29854;SDS011;16733;48.738;9.106;2024-01-10T03:53:57;11.73;;;4.65;;
29854;SDS011;16733;48.738;9.106;2024-01-10T03:56:24;10.38;;;4.75;;
29854;SDS011;16733;48.738;9.106;2024-01-10T03:58:51;7.43;;;3.47;;
29854;SDS011;16733;48.738;9.106;2024-01-10T04:01:21;8.32;;;2.97;;
29854;SDS011;16733;48.738;9.106;2024-01-10T04:03:47;8.88;;;4.28;;
29854;SDS011;16733;48.738;9.106;2024-01-10T04:06:13;9.40;;;4.78;;
29854;SDS011;16733;48.738;9.106;2024-01-10T04:08:39;14.25;;;4.05;;
29854;SDS011;16733;48.738;9.106;2024-01-10T04:11:05;6.57;;;3.83;;
29854;SDS011;16733;48.738;9.106;2024-01-10T04:13:31;12.93;;;3.30;;
29854;SDS011;16733;48.738;9.106;2024-01-10T04:15:57;14.02;;;4.82;;
29854;SDS011;16733;48.738;9.106;2024-01-10T04:18:23;9.32;;;4.70;;
29854;SDS011;16733;48.738;9.106;2024-01-10T04:20:49;9.02;;;3.95;;
29854;SDS011;16733;48.738;9.106;2024-01-10T04:23:15;11.85;;;4.07;;
29854;SDS011;16733;48.738;9.106;2024-01-10T04:25:41;8.30;;;4.50;;
29854;SDS011;16733;48.738;9.106;2024-01-10T04:28:07;10.00;;;4.75;;
29854;SDS011;16733;48.738;9.106;2024-01-10T04:30:33;7.85;;;4.50;;
29854;SDS011;16733;48.738;9.106;2024-01-10T04:32:59;13.27;;;6.00;;
29854;SDS011;16733;48.738;9.106;2024-01-10T04:35:25;14.15;;;4.95;;
29854;SDS011;16733;48.738;9.106;2024-01-10T04:37:51;11.93;;;5.35;;
29854;SDS011;16733;48.738;9.106;2024-01-10T04:40:17;6.95;;;3.33;;
29854;SDS011;16733;48.738;9.106;2024-01-10T04:42:43;14.02;;;4.60;;
29854;SDS011;16733;48.738;9.106;2024-01-10T04:45:10;12.60;;;4.55;;
29854;SDS011;16733;48.738;9.106;2024-01-10T04:47:36;8.73;;;3.63;;
29854;SDS011;16733;48.738;9.106;2024-01-10T04:50:02;11.52;;;5.70;;
29854;SDS011;16733;48.738;9.106;2024-01-10T04:52:28;8.55;;;3.88;;
29854;SDS011;16733;48.738;9.106;2024-01-10T04:54:54;9.30;;;4.07;;
29854;SDS011;16733;48.738;9.106;2024-01-10T04:57:20;9.18;;;4.32;;
29854;SDS011;16733;48.738;9.106;2024-01-10T04:59:46;10.52;;;4.53;;
29854;SDS011;16733;48.738;9.106;2024-01-10T05:02:12;14.93;;;5.78;;
29854;SDS011;16733;48.738;9.106;2024-01-10T05:04:38;10.05;;;5.82;;
29854;SDS011;16733;48.738;9.106;2024-01-10T05:07:04;13.15;;;5.25;;
29854;SDS011;16733;48.738;9.106;2024-01-10T05:09:30;9.35;;;4.70;;
29854;SDS011;16733;48.738;9.106;2024-01-10T05:11:56;15.77;;;5.60;;
29854;SDS011;16733;48.738;9.106;2024-01-10T05:14:22;8.23;;;3.90;;
29854;SDS011;16733;48.738;9.106;2024-01-10T05:16:48;11.65;;;4.78;;
29854;SDS011;16733;48.738;9.106;2024-01-10T05:19:14;9.93;;;4.72;;
29854;SDS011;16733;48.738;9.106;2024-01-10T05:21:40;11.45;;;4.57;;
29854;SDS011;16733;48.738;9.106;2024-01-10T05:24:06;18.15;;;5.15;;
29854;SDS011;16733;48.738;9.106;2024-01-10T05:26:32;8.02;;;4.80;;
29854;SDS011;16733;48.738;9.106;2024-01-10T05:28:58;3.05;;;2.47;;
29854;SDS011;16733;48.738;9.106;2024-01-10T05:31:24;15.02;;;6.03;;
29854;SDS011;16733;48.738;9.106;2024-01-10T05:33:50;10.55;;;4.53;;
29854;SDS011;16733;48.738;9.106;2024-01-10T05:36:16;10.35;;;4.03;;
29854;SDS011;16733;48.738;9.106;2024-01-10T05:38:42;8.48;;;4.22;;
29854;SDS011;16733;48.738;9.106;2024-01-10T05:41:08;11.82;;;5.85;;
29854;SDS011;16733;48.738;9.106;2024-01-10T05:43:34;11.60;;;5.35;;
29854;SDS011;16733;48.738;9.106;2024-01-10T05:46:01;18.38;;;5.78;;
29854;SDS011;16733;48.738;9.106;2024-01-10T05:48:29;6.28;;;4.13;;
29854;SDS011;16733;48.738;9.106;2024-01-10T05:50:55;14.25;;;6.15;;
29854;SDS011;16733;48.738;9.106;2024-01-10T05:53:23;10.45;;;3.42;;
29854;SDS011;16733;48.738;9.106;2024-01-10T05:55:49;14.15;;;4.68;;
29854;SDS011;16733;48.738;9.106;2024-01-10T05:58:16;7.50;;;4.80;;
29854;SDS011;16733;48.738;9.106;2024-01-10T06:00:42;9.52;;;3.97;;
29854;SDS011;16733;48.738;9.106;2024-01-10T06:03:08;9.10;;;4.18;;
29854;SDS011;16733;48.738;9.106;2024-01-10T06:05:34;12.38;;;4.50;;
29854;SDS011;16733;48.738;9.106;2024-01-10T06:08:00;12.02;;;5.18;;
29854;SDS011;16733;48.738;9.106;2024-01-10T06:10:29;17.15;;;6.45;;
29854;SDS011;16733;48.738;9.106;2024-01-10T06:12:55;6.40;;;4.38;;
29854;SDS011;16733;48.738;9.106;2024-01-10T06:15:21;11.30;;;5.78;;
29854;SDS011;16733;48.738;9.106;2024-01-10T06:17:47;11.05;;;5.55;;
29854;SDS011;16733;48.738;9.106;2024-01-10T06:20:15;16.80;;;7.32;;
29854;SDS011;16733;48.738;9.106;2024-01-10T06:22:41;7.32;;;4.47;;
29854;SDS011;16733;48.738;9.106;2024-01-10T06:25:07;8.88;;;5.47;;
29854;SDS011;16733;48.738;9.106;2024-01-10T06:27:33;10.63;;;5.45;;
29854;SDS011;16733;48.738;9.106;2024-01-10T06:29:59;15.65;;;5.25;;
29854;SDS011;16733;48.738;9.106;2024-01-10T06:32:25;10.25;;;4.22;;
29854;SDS011;16733;48.738;9.106;2024-01-10T06:34:51;10.73;;;4.95;;
29854;SDS011;16733;48.738;9.106;2024-01-10T06:37:18;8.93;;;3.97;;
29854;SDS011;16733;48.738;9.106;2024-01-10T06:39:44;10.50;;;5.55;;
29854;SDS011;16733;48.738;9.106;2024-01-10T06:42:10;10.02;;;4.20;;
29854;SDS011;16733;48.738;9.106;2024-01-10T06:44:37;11.82;;;5.28;;
29854;SDS011;16733;48.738;9.106;2024-01-10T06:47:03;14.52;;;5.75;;
29854;SDS011;16733;48.738;9.106;2024-01-10T06:49:29;19.45;;;4.03;;
29854;SDS011;16733;48.738;9.106;2024-01-10T06:51:55;15.82;;;4.22;;
29854;SDS011;16733;48.738;9.106;2024-01-10T06:54:21;11.18;;;5.47;;
29854;SDS011;16733;48.738;9.106;2024-01-10T06:56:47;17.55;;;5.32;;
29854;SDS011;16733;48.738;9.106;2024-01-10T06:59:13;11.18;;;4.93;;
29854;SDS011;16733;48.738;9.106;2024-01-10T07:01:39;17.67;;;5.43;;
29854;SDS011;16733;48.738;9.106;2024-01-10T07:04:05;9.40;;;5.53;;
29854;SDS011;16733;48.738;9.106;2024-01-10T07:06:31;9.30;;;4.85;;
29854;SDS011;16733;48.738;9.106;2024-01-10T07:08:57;9.20;;;4.60;;
29854;SDS011;16733;48.738;9.106;2024-01-10T07:11:23;19.83;;;5.15;;
29854;SDS011;16733;48.738;9.106;2024-01-10T07:13:51;10.30;;;5.45;;
29854;SDS011;16733;48.738;9.106;2024-01-10T07:16:17;14.30;;;5.07;;
29854;SDS011;16733;48.738;9.106;2024-01-10T07:18:43;8.52;;;4.20;;
29854;SDS011;16733;48.738;9.106;2024-01-10T07:21:15;9.00;;;4.95;;
29854;SDS011;16733;48.738;9.106;2024-01-10T07:23:41;11.15;;;5.68;;
29854;SDS011;16733;48.738;9.106;2024-01-10T07:26:08;7.00;;;3.38;;
29854;SDS011;16733;48.738;9.106;2024-01-10T07:28:34;11.52;;;4.80;;
29854;SDS011;16733;48.738;9.106;2024-01-10T07:31:00;11.73;;;5.75;;
29854;SDS011;16733;48.738;9.106;2024-01-10T07:33:27;6.97;;;4.57;;
29854;SDS011;16733;48.738;9.106;2024-01-10T07:35:55;9.13;;;4.93;;
29854;SDS011;16733;48.738;9.106;2024-01-10T07:38:21;20.02;;;4.25;;
29854;SDS011;16733;48.738;9.106;2024-01-10T07:40:47;11.00;;;4.90;;
29854;SDS011;16733;48.738;9.106;2024-01-10T07:43:13;9.75;;;5.03;;
29854;SDS011;16733;48.738;9.106;2024-01-10T07:45:39;12.65;;;4.72;;
29854;SDS011;16733;48.738;9.106;2024-01-10T07:48:05;14.80;;;6.30;;
29854;SDS011;16733;48.738;9.106;2024-01-10T07:50:31;8.50;;;4.85;;
29854;SDS011;16733;48.738;9.106;2024-01-10T07:52:57;11.20;;;5.32;;
29854;SDS011;16733;48.738;9.106;2024-01-10T07:55:23;13.52;;;4.72;;
29854;SDS011;16733;48.738;9.106;2024-01-10T07:57:49;10.38;;;4.38;;
29854;SDS011;16733;48.738;9.106;2024-01-10T08:00:15;13.25;;;5.10;;
29854;SDS011;16733;48.738;9.106;2024-01-10T08:02:41;9.93;;;5.35;;
29854;SDS011;16733;48.738;9.106;2024-01-10T08:05:07;13.02;;;6.43;;
29854;SDS011;16733;48.738;9.106;2024-01-10T08:07:34;8.10;;;3.80;;
29854;SDS011;16733;48.738;9.106;2024-01-10T08:10:03;19.42;;;5.22;;
29854;SDS011;16733;48.738;9.106;2024-01-10T08:12:29;7.40;;;4.57;;
29854;SDS011;16733;48.738;9.106;2024-01-10T08:14:55;13.43;;;4.75;;
29854;SDS011;16733;48.738;9.106;2024-01-10T08:17:21;15.43;;;5.00;;
29854;SDS011;16733;48.738;9.106;2024-01-10T08:19:48;12.35;;;5.00;;
29854;SDS011;16733;48.738;9.106;2024-01-10T08:22:14;11.38;;;5.65;;
29854;SDS011;16733;48.738;9.106;2024-01-10T08:24:40;10.30;;;4.60;;
29854;SDS011;16733;48.738;9.106;2024-01-10T08:27:06;13.52;;;6.07;;
29854;SDS011;16733;48.738;9.106;2024-01-10T08:29:32;11.93;;;6.70;;
29854;SDS011;16733;48.738;9.106;2024-01-10T08:31:58;11.18;;;5.05;;
29854;SDS011;16733;48.738;9.106;2024-01-10T08:34:25;12.60;;;4.05;;
29854;SDS011;16733;48.738;9.106;2024-01-10T08:36:51;13.00;;;6.85;;
29854;SDS011;16733;48.738;9.106;2024-01-10T08:39:18;21.05;;;6.90;;
29854;SDS011;16733;48.738;9.106;2024-01-10T08:41:44;9.02;;;5.50;;
29854;SDS011;16733;48.738;9.106;2024-01-10T08:44:13;9.52;;;5.57;;
29854;SDS011;16733;48.738;9.106;2024-01-10T08:46:39;12.70;;;5.85;;
29854;SDS011;16733;48.738;9.106;2024-01-10T08:49:05;12.68;;;6.07;;
29854;SDS011;16733;48.738;9.106;2024-01-10T08:51:31;13.85;;;6.32;;
29854;SDS011;16733;48.738;9.106;2024-01-10T08:53:57;10.27;;;4.43;;
29854;SDS011;16733;48.738;9.106;2024-01-10T08:56:23;19.60;;;7.43;;
29854;SDS011;16733;48.738;9.106;2024-01-10T08:58:49;14.30;;;6.10;;
29854;SDS011;16733;48.738;9.106;2024-01-10T09:01:15;13.25;;;6.28;;
29854;SDS011;16733;48.738;9.106;2024-01-10T09:03:41;11.88;;;5.45;;
29854;SDS011;16733;48.738;9.106;2024-01-10T09:06:07;20.85;;;6.82;;
29854;SDS011;16733;48.738;9.106;2024-01-10T09:08:33;10.85;;;4.63;;
29854;SDS011;16733;48.738;9.106;2024-01-10T09:10:59;14.93;;;6.00;;
29854;SDS011;16733;48.738;9.106;2024-01-10T09:13:25;14.90;;;7.25;;
29854;SDS011;16733;48.738;9.106;2024-01-10T09:15:52;11.77;;;6.43;;
29854;SDS011;16733;48.738;9.106;2024-01-10T09:18:19;19.67;;;6.13;;
29854;SDS011;16733;48.738;9.106;2024-01-10T09:20:44;18.02;;;6.55;;
29854;SDS011;16733;48.738;9.106;2024-01-10T09:23:11;12.57;;;5.75;;
29854;SDS011;16733;48.738;9.106;2024-01-10T09:25:37;20.13;;;7.47;;
29854;SDS011;16733;48.738;9.106;2024-01-10T09:28:06;16.85;;;6.90;;
29854;SDS011;16733;48.738;9.106;2024-01-10T09:30:32;14.25;;;7.95;;
29854;SDS011;16733;48.738;9.106;2024-01-10T09:32:59;11.32;;;5.35;;
29854;SDS011;16733;48.738;9.106;2024-01-10T09:35:25;11.18;;;5.93;;
29854;SDS011;16733;48.738;9.106;2024-01-10T09:37:51;13.70;;;6.43;;
29854;SDS011;16733;48.738;9.106;2024-01-10T09:40:18;7.28;;;4.82;;
29854;SDS011;16733;48.738;9.106;2024-01-10T09:42:47;20.92;;;8.52;;
29854;SDS011;16733;48.738;9.106;2024-01-10T09:45:16;19.30;;;8.10;;
29854;SDS011;16733;48.738;9.106;2024-01-10T09:47:43;14.63;;;7.07;;
29854;SDS011;16733;48.738;9.106;2024-01-10T09:50:11;6.45;;;4.55;;
29854;SDS011;16733;48.738;9.106;2024-01-10T09:52:41;13.02;;;6.55;;
29854;SDS011;16733;48.738;9.106;2024-01-10T09:55:07;17.92;;;6.88;;
29854;SDS011;16733;48.738;9.106;2024-01-10T09:57:34;12.02;;;5.82;;
29854;SDS011;16733;48.738;9.106;2024-01-10T10:00:01;29.75;;;7.63;;
29854;SDS011;16733;48.738;9.106;2024-01-10T10:02:29;19.58;;;8.85;;
29854;SDS011;16733;48.738;9.106;2024-01-10T10:05:04;19.25;;;7.47;;
29854;SDS011;16733;48.738;9.106;2024-01-10T10:07:49;18.10;;;9.32;;
29854;SDS011;16733;48.738;9.106;2024-01-10T10:10:16;24.23;;;6.22;;
29854;SDS011;16733;48.738;9.106;2024-01-10T10:12:42;15.80;;;6.43;;
29854;SDS011;16733;48.738;9.106;2024-01-10T10:15:15;11.65;;;6.82;;
29854;SDS011;16733;48.738;9.106;2024-01-10T10:17:43;16.30;;;6.32;;
29854;SDS011;16733;48.738;9.106;2024-01-10T10:20:25;11.73;;;6.00;;
29854;SDS011;16733;48.738;9.106;2024-01-10T10:23:05;26.80;;;6.10;;
29854;SDS011;16733;48.738;9.106;2024-01-10T10:25:35;11.38;;;5.63;;
29854;SDS011;16733;48.738;9.106;2024-01-10T10:28:03;15.90;;;6.57;;
29854;SDS011;16733;48.738;9.106;2024-01-10T10:30:30;17.63;;;6.88;;
29854;SDS011;16733;48.738;9.106;2024-01-10T10:32:56;16.70;;;6.45;;
29854;SDS011;16733;48.738;9.106;2024-01-10T10:35:22;25.63;;;7.90;;
29854;SDS011;16733;48.738;9.106;2024-01-10T10:37:49;23.00;;;9.15;;
29854;SDS011;16733;48.738;9.106;2024-01-10T10:40:15;15.05;;;7.78;;
29854;SDS011;16733;48.738;9.106;2024-01-10T10:42:45;10.90;;;6.35;;
29854;SDS011;16733;48.738;9.106;2024-01-10T10:45:14;10.70;;;5.75;;
29854;SDS011;16733;48.738;9.106;2024-01-10T10:47:42;13.25;;;5.45;;
29854;SDS011;16733;48.738;9.106;2024-01-10T10:50:12;15.50;;;6.22;;
29854;SDS011;16733;48.738;9.106;2024-01-10T10:52:40;23.77;;;5.70;;
29854;SDS011;16733;48.738;9.106;2024-01-10T10:55:09;23.70;;;8.85;;
29854;SDS011;16733;48.738;9.106;2024-01-10T10:57:36;21.27;;;7.38;;
29854;SDS011;16733;48.738;9.106;2024-01-10T11:00:03;13.38;;;6.63;;
29854;SDS011;16733;48.738;9.106;2024-01-10T11:02:32;20.65;;;8.60;;
29854;SDS011;16733;48.738;9.106;2024-01-10T11:04:58;15.13;;;6.60;;
29854;SDS011;16733;48.738;9.106;2024-01-10T11:07:25;16.13;;;7.97;;
29854;SDS011;16733;48.738;9.106;2024-01-10T11:09:52;21.55;;;8.43;;
29854;SDS011;16733;48.738;9.106;2024-01-10T11:22:32;17.80;;;7.60;;
29854;SDS011;16733;48.738;9.106;2024-01-10T11:25:02;19.27;;;7.50;;
29854;SDS011;16733;48.738;9.106;2024-01-10T11:27:28;21.10;;;8.65;;
29854;SDS011;16733;48.738;9.106;2024-01-10T11:29:54;16.55;;;7.57;;
29854;SDS011;16733;48.738;9.106;2024-01-10T11:32:22;15.52;;;7.72;;
29854;SDS011;16733;48.738;9.106;2024-01-10T11:37:23;23.97;;;8.70;;
29854;SDS011;16733;48.738;9.106;2024-01-10T11:39:50;19.52;;;8.65;;
29854;SDS011;16733;48.738;9.106;2024-01-10T11:42:23;26.23;;;9.10;;
29854;SDS011;16733;48.738;9.106;2024-01-10T11:44:50;21.20;;;8.63;;
29854;SDS011;16733;48.738;9.106;2024-01-10T11:47:17;21.85;;;7.60;;
29854;SDS011;16733;48.738;9.106;2024-01-10T11:50:04;22.33;;;8.15;;
29854;SDS011;16733;48.738;9.106;2024-01-10T11:52:33;19.98;;;8.70;;
29854;SDS011;16733;48.738;9.106;2024-01-10T11:54:59;20.80;;;9.15;;
29854;SDS011;16733;48.738;9.106;2024-01-10T11:57:27;34.72;;;12.90;;
29854;SDS011;16733;48.738;9.106;2024-01-10T11:59:54;17.95;;;8.13;;
29854;SDS011;16733;48.738;9.106;2024-01-10T12:02:23;22.92;;;9.77;;
29854;SDS011;16733;48.738;9.106;2024-01-10T12:04:51;24.33;;;10.32;;
29854;SDS011;16733;48.738;9.106;2024-01-10T12:07:17;16.67;;;8.43;;
29854;SDS011;16733;48.738;9.106;2024-01-10T12:09:43;18.88;;;9.45;;
29854;SDS011;16733;48.738;9.106;2024-01-10T12:12:10;27.23;;;11.07;;
29854;SDS011;16733;48.738;9.106;2024-01-10T12:14:36;21.10;;;9.63;;
29854;SDS011;16733;48.738;9.106;2024-01-10T12:17:02;28.30;;;11.10;;
29854;SDS011;16733;48.738;9.106;2024-01-10T12:19:29;24.65;;;9.88;;
29854;SDS011;16733;48.738;9.106;2024-01-10T12:21:55;21.88;;;9.38;;
29854;SDS011;16733;48.738;9.106;2024-01-10T12:24:21;19.75;;;9.18;;
29854;SDS011;16733;48.738;9.106;2024-01-10T12:26:48;30.75;;;10.57;;
29854;SDS011;16733;48.738;9.106;2024-01-10T12:29:18;32.40;;;10.02;;
29854;SDS011;16733;48.738;9.106;2024-01-10T12:31:47;22.60;;;10.40;;
29854;SDS011;16733;48.738;9.106;2024-01-10T12:34:13;27.90;;;9.93;;
29854;SDS011;16733;48.738;9.106;2024-01-10T12:36:40;24.30;;;9.95;;
29854;SDS011;16733;48.738;9.106;2024-01-10T12:39:06;25.38;;;9.10;;
29854;SDS011;16733;48.738;9.106;2024-01-10T12:41:33;21.55;;;10.10;;
29854;SDS011;16733;48.738;9.106;2024-01-10T12:44:00;23.92;;;10.45;;
29854;SDS011;16733;48.738;9.106;2024-01-10T12:46:28;30.17;;;10.02;;
29854;SDS011;16733;48.738;9.106;2024-01-10T12:49:04;25.60;;;9.82;;
29854;SDS011;16733;48.738;9.106;2024-01-10T12:51:32;20.95;;;11.35;;
29854;SDS011;16733;48.738;9.106;2024-01-10T12:53:58;25.27;;;10.18;;
29854;SDS011;16733;48.738;9.106;2024-01-10T12:56:25;34.63;;;11.32;;
29854;SDS011;16733;48.738;9.106;2024-01-10T12:58:51;17.08;;;8.18;;
29854;SDS011;16733;48.738;9.106;2024-01-10T13:01:17;20.35;;;9.55;;
29854;SDS011;16733;48.738;9.106;2024-01-10T13:03:43;23.00;;;9.57;;
29854;SDS011;16733;48.738;9.106;2024-01-10T13:06:09;31.92;;;10.88;;
29854;SDS011;16733;48.738;9.106;2024-01-10T13:08:36;26.35;;;10.73;;
29854;SDS011;16733;48.738;9.106;2024-01-10T13:11:02;32.35;;;11.13;;
29854;SDS011;16733;48.738;9.106;2024-01-10T13:13:34;21.55;;;9.05;;
29854;SDS011;16733;48.738;9.106;2024-01-10T13:16:01;22.10;;;10.13;;
29854;SDS011;16733;48.738;9.106;2024-01-10T13:18:27;17.45;;;8.23;;
29854;SDS011;16733;48.738;9.106;2024-01-10T13:20:53;19.90;;;8.55;;
29854;SDS011;16733;48.738;9.106;2024-01-10T13:23:19;27.48;;;10.27;;
29854;SDS011;16733;48.738;9.106;2024-01-10T13:25:48;22.65;;;8.63;;
29854;SDS011;16733;48.738;9.106;2024-01-10T13:28:14;29.58;;;10.90;;
29854;SDS011;16733;48.738;9.106;2024-01-10T13:30:40;22.02;;;10.50;;
29854;SDS011;16733;48.738;9.106;2024-01-10T13:33:08;23.13;;;9.80;;
29854;SDS011;16733;48.738;9.106;2024-01-10T13:35:34;26.15;;;10.63;;
29854;SDS011;16733;48.738;9.106;2024-01-10T13:38:00;29.00;;;11.77;;
29854;SDS011;16733;48.738;9.106;2024-01-10T13:40:26;20.25;;;9.75;;
29854;SDS011;16733;48.738;9.106;2024-01-10T13:42:52;24.15;;;10.68;;
29854;SDS011;16733;48.738;9.106;2024-01-10T13:45:19;22.13;;;10.60;;
29854;SDS011;16733;48.738;9.106;2024-01-10T13:47:45;28.05;;;11.90;;
29854;SDS011;16733;48.738;9.106;2024-01-10T13:50:12;19.85;;;10.00;;
29854;SDS011;16733;48.738;9.106;2024-01-10T13:52:38;26.35;;;10.60;;
29854;SDS011;16733;48.738;9.106;2024-01-10T13:55:04;26.92;;;11.88;;
29854;SDS011;16733;48.738;9.106;2024-01-10T13:57:31;22.13;;;9.68;;
29854;SDS011;16733;48.738;9.106;2024-01-10T14:00:00;26.80;;;11.70;;
29854;SDS011;16733;48.738;9.106;2024-01-10T14:02:26;28.13;;;11.30;;
29854;SDS011;16733;48.738;9.106;2024-01-10T14:04:52;21.45;;;9.18;;
29854;SDS011;16733;48.738;9.106;2024-01-10T14:07:22;23.90;;;9.52;;
29854;SDS011;16733;48.738;9.106;2024-01-10T14:09:49;23.50;;;9.90;;
29854;SDS011;16733;48.738;9.106;2024-01-10T14:12:15;21.67;;;8.75;;
29854;SDS011;16733;48.738;9.106;2024-01-10T14:14:41;26.13;;;9.20;;
29854;SDS011;16733;48.738;9.106;2024-01-10T14:17:08;20.42;;;9.27;;
29854;SDS011;16733;48.738;9.106;2024-01-10T14:19:35;23.45;;;10.25;;
29854;SDS011;16733;48.738;9.106;2024-01-10T14:22:01;26.08;;;11.00;;
29854;SDS011;16733;48.738;9.106;2024-01-10T14:24:27;33.78;;;11.88;;
29854;SDS011;16733;48.738;9.106;2024-01-10T14:26:53;18.55;;;8.48;;
29854;SDS011;16733;48.738;9.106;2024-01-10T14:29:19;17.85;;;7.68;;
29854;SDS011;16733;48.738;9.106;2024-01-10T14:31:47;18.58;;;8.60;;
29854;SDS011;16733;48.738;9.106;2024-01-10T14:34:14;27.23;;;10.27;;
29854;SDS011;16733;48.738;9.106;2024-01-10T14:36:40;25.17;;;10.18;;
29854;SDS011;16733;48.738;9.106;2024-01-10T14:39:06;23.55;;;9.55;;
29854;SDS011;16733;48.738;9.106;2024-01-10T14:41:32;24.33;;;10.25;;
29854;SDS011;16733;48.738;9.106;2024-01-10T14:44:02;21.42;;;9.88;;